sensor_id;sensor_type;location;lat;lon;timestamp;P1;durP1;ratioP1;P2;durP2;ratioP2
7843;SDS011;3967;48.702;9.326;2022-08-19T00:01:25;10.87;;;9.77;;
7843;SDS011;3967;48.702;9.326;2022-08-19T00:03:59;11.70;;;10.70;;
7843;SDS011;3967;48.702;9.326;2022-08-19T00:06:28;11.80;;;10.80;;
7843;SDS011;3967;48.702;9.326;2022-08-19T00:08:55;12.47;;;11.17;;
7843;SDS011;3967;48.702;9.326;2022-08-19T00:11:24;12.30;;;11.13;;
7843;SDS011;3967;48.702;9.326;2022-08-19T00:13:52;11.40;;;10.30;;
7843;SDS011;3967;48.702;9.326;2022-08-19T00:16:21;12.73;;;11.43;;
7843;SDS011;3967;48.702;9.326;2022-08-19T00:18:51;13.20;;;11.77;;
7843;SDS011;3967;48.702;9.326;2022-08-19T00:21:19;13.27;;;11.40;;
7843;SDS011;3967;48.702;9.326;2022-08-19T00:23:45;13.03;;;11.73;;
7843;SDS011;3967;48.702;9.326;2022-08-19T00:26:13;13.70;;;12.40;;
7843;SDS011;3967;48.702;9.326;2022-08-19T00:28:40;11.93;;;10.73;;
7843;SDS011;3967;48.702;9.326;2022-08-19T00:31:08;12.93;;;11.73;;
7843;SDS011;3967;48.702;9.326;2022-08-19T00:33:35;13.53;;;12.20;;
7843;SDS011;3967;48.702;9.326;2022-08-19T00:36:04;13.33;;;12.13;;
7843;SDS011;3967;48.702;9.326;2022-08-19T00:38:33;12.50;;;11.33;;
7843;SDS011;3967;48.702;9.326;2022-08-19T00:41:04;13.43;;;12.13;;
7843;SDS011;3967;48.702;9.326;2022-08-19T00:43:32;13.40;;;12.10;;
7843;SDS011;3967;48.702;9.326;2022-08-19T00:45:59;13.60;;;12.30;;
7843;SDS011;3967;48.702;9.326;2022-08-19T00:48:27;14.37;;;12.23;;
7843;SDS011;3967;48.702;9.326;2022-08-19T00:50:54;13.87;;;12.47;;
7843;SDS011;3967;48.702;9.326;2022-08-19T00:53:22;14.40;;;12.90;;
7843;SDS011;3967;48.702;9.326;2022-08-19T00:55:53;14.00;;;12.60;;
7843;SDS011;3967;48.702;9.326;2022-08-19T00:58:24;14.90;;;13.40;;
7843;SDS011;3967;48.702;9.326;2022-08-19T01:00:54;15.10;;;13.70;;
7843;SDS011;3967;48.702;9.326;2022-08-19T01:03:21;13.40;;;12.00;;
7843;SDS011;3967;48.702;9.326;2022-08-19T01:05:48;14.67;;;13.27;;
7843;SDS011;3967;48.702;9.326;2022-08-19T01:08:18;14.70;;;13.23;;
7843;SDS011;3967;48.702;9.326;2022-08-19T01:10:48;15.30;;;13.70;;
7843;SDS011;3967;48.702;9.326;2022-08-19T01:13:19;14.67;;;13.00;;
7843;SDS011;3967;48.702;9.326;2022-08-19T01:15:49;15.50;;;13.47;;
7843;SDS011;3967;48.702;9.326;2022-08-19T01:18:26;14.27;;;12.77;;
7843;SDS011;3967;48.702;9.326;2022-08-19T01:20:55;13.50;;;12.20;;
7843;SDS011;3967;48.702;9.326;2022-08-19T01:23:24;13.97;;;12.47;;
7843;SDS011;3967;48.702;9.326;2022-08-19T01:26:16;13.03;;;11.73;;
7843;SDS011;3967;48.702;9.326;2022-08-19T01:28:49;13.97;;;12.57;;
7843;SDS011;3967;48.702;9.326;2022-08-19T01:31:20;16.77;;;12.97;;
7843;SDS011;3967;48.702;9.326;2022-08-19T01:33:53;14.97;;;13.47;;
7843;SDS011;3967;48.702;9.326;2022-08-19T01:36:23;14.30;;;12.87;;
7843;SDS011;3967;48.702;9.326;2022-08-19T01:38:53;13.77;;;12.47;;
7843;SDS011;3967;48.702;9.326;2022-08-19T01:41:21;14.33;;;12.93;;
7843;SDS011;3967;48.702;9.326;2022-08-19T01:43:50;13.10;;;11.80;;
7843;SDS011;3967;48.702;9.326;2022-08-19T01:46:38;14.13;;;12.63;;
7843;SDS011;3967;48.702;9.326;2022-08-19T01:49:05;13.50;;;12.17;;
7843;SDS011;3967;48.702;9.326;2022-08-19T01:51:34;13.37;;;12.07;;
7843;SDS011;3967;48.702;9.326;2022-08-19T01:54:05;13.70;;;12.33;;
7843;SDS011;3967;48.702;9.326;2022-08-19T01:56:37;13.43;;;11.43;;
7843;SDS011;3967;48.702;9.326;2022-08-19T01:59:05;13.10;;;11.87;;
7843;SDS011;3967;48.702;9.326;2022-08-19T02:01:37;13.93;;;12.53;;
7843;SDS011;3967;48.702;9.326;2022-08-19T02:04:04;15.10;;;13.03;;
7843;SDS011;3967;48.702;9.326;2022-08-19T02:06:31;14.07;;;12.57;;
7843;SDS011;3967;48.702;9.326;2022-08-19T02:08:59;13.10;;;11.77;;
7843;SDS011;3967;48.702;9.326;2022-08-19T02:11:27;13.43;;;12.13;;
7843;SDS011;3967;48.702;9.326;2022-08-19T02:13:57;14.93;;;13.33;;
7843;SDS011;3967;48.702;9.326;2022-08-19T02:16:25;14.83;;;13.33;;
7843;SDS011;3967;48.702;9.326;2022-08-19T02:18:52;14.83;;;13.30;;
7843;SDS011;3967;48.702;9.326;2022-08-19T02:21:21;15.13;;;13.53;;
7843;SDS011;3967;48.702;9.326;2022-08-19T02:23:49;13.33;;;12.03;;
7843;SDS011;3967;48.702;9.326;2022-08-19T02:28:45;13.40;;;12.10;;
7843;SDS011;3967;48.702;9.326;2022-08-19T02:31:13;13.40;;;12.10;;
7843;SDS011;3967;48.702;9.326;2022-08-19T02:33:44;12.83;;;11.60;;
7843;SDS011;3967;48.702;9.326;2022-08-19T02:36:11;13.53;;;12.07;;
7843;SDS011;3967;48.702;9.326;2022-08-19T02:38:41;14.17;;;12.77;;
7843;SDS011;3967;48.702;9.326;2022-08-19T02:41:14;15.10;;;13.60;;
7843;SDS011;3967;48.702;9.326;2022-08-19T02:43:48;16.53;;;14.83;;
7843;SDS011;3967;48.702;9.326;2022-08-19T02:46:35;16.00;;;14.47;;
7843;SDS011;3967;48.702;9.326;2022-08-19T02:49:03;16.33;;;14.40;;
7843;SDS011;3967;48.702;9.326;2022-08-19T02:51:35;17.57;;;15.43;;
7843;SDS011;3967;48.702;9.326;2022-08-19T02:54:04;17.03;;;15.00;;
7843;SDS011;3967;48.702;9.326;2022-08-19T02:56:36;16.07;;;14.37;;
7843;SDS011;3967;48.702;9.326;2022-08-19T02:59:04;17.67;;;15.23;;
7843;SDS011;3967;48.702;9.326;2022-08-19T03:01:37;17.23;;;15.43;;
7843;SDS011;3967;48.702;9.326;2022-08-19T03:04:07;17.43;;;14.83;;
7843;SDS011;3967;48.702;9.326;2022-08-19T03:06:37;16.80;;;14.10;;
7843;SDS011;3967;48.702;9.326;2022-08-19T03:09:05;19.03;;;15.33;;
7843;SDS011;3967;48.702;9.326;2022-08-19T03:11:32;19.20;;;16.10;;
7843;SDS011;3967;48.702;9.326;2022-08-19T03:13:59;20.00;;;15.80;;
7843;SDS011;3967;48.702;9.326;2022-08-19T03:16:29;18.40;;;16.13;;
7843;SDS011;3967;48.702;9.326;2022-08-19T03:18:59;20.53;;;15.97;;
7843;SDS011;3967;48.702;9.326;2022-08-19T03:21:28;19.30;;;15.47;;
7843;SDS011;3967;48.702;9.326;2022-08-19T03:23:58;23.73;;;16.20;;
7843;SDS011;3967;48.702;9.326;2022-08-19T03:26:26;18.77;;;15.37;;
7843;SDS011;3967;48.702;9.326;2022-08-19T03:28:53;20.17;;;16.83;;
7843;SDS011;3967;48.702;9.326;2022-08-19T03:31:24;17.37;;;15.57;;
7843;SDS011;3967;48.702;9.326;2022-08-19T03:34:13;19.07;;;16.10;;
7843;SDS011;3967;48.702;9.326;2022-08-19T03:36:44;20.60;;;17.07;;
7843;SDS011;3967;48.702;9.326;2022-08-19T03:39:11;18.83;;;15.47;;
7843;SDS011;3967;48.702;9.326;2022-08-19T03:41:39;20.50;;;17.23;;
7843;SDS011;3967;48.702;9.326;2022-08-19T03:44:14;18.67;;;16.67;;
7843;SDS011;3967;48.702;9.326;2022-08-19T03:46:45;18.17;;;15.80;;
7843;SDS011;3967;48.702;9.326;2022-08-19T03:49:14;20.03;;;16.80;;
7843;SDS011;3967;48.702;9.326;2022-08-19T03:51:43;19.47;;;17.37;;
7843;SDS011;3967;48.702;9.326;2022-08-19T03:54:12;18.47;;;16.50;;
7843;SDS011;3967;48.702;9.326;2022-08-19T03:56:41;23.93;;;19.03;;
7843;SDS011;3967;48.702;9.326;2022-08-19T03:59:10;20.00;;;17.83;;
7843;SDS011;3967;48.702;9.326;2022-08-19T04:01:39;21.57;;;17.33;;
7843;SDS011;3967;48.702;9.326;2022-08-19T04:04:06;21.60;;;16.77;;
7843;SDS011;3967;48.702;9.326;2022-08-19T04:06:35;23.43;;;18.50;;
7843;SDS011;3967;48.702;9.326;2022-08-19T04:09:07;20.07;;;17.80;;
7843;SDS011;3967;48.702;9.326;2022-08-19T04:11:37;21.17;;;18.87;;
7843;SDS011;3967;48.702;9.326;2022-08-19T04:14:14;23.90;;;19.97;;
7843;SDS011;3967;48.702;9.326;2022-08-19T04:16:44;22.47;;;18.93;;
7843;SDS011;3967;48.702;9.326;2022-08-19T04:19:13;25.50;;;20.73;;
7843;SDS011;3967;48.702;9.326;2022-08-19T04:21:42;22.70;;;19.07;;
7843;SDS011;3967;48.702;9.326;2022-08-19T04:24:11;23.10;;;19.10;;
7843;SDS011;3967;48.702;9.326;2022-08-19T04:26:38;22.80;;;17.83;;
7843;SDS011;3967;48.702;9.326;2022-08-19T04:29:07;22.73;;;19.70;;
7843;SDS011;3967;48.702;9.326;2022-08-19T04:31:38;25.30;;;21.83;;
7843;SDS011;3967;48.702;9.326;2022-08-19T04:34:07;24.37;;;20.83;;
7843;SDS011;3967;48.702;9.326;2022-08-19T04:36:39;23.37;;;20.07;;
7843;SDS011;3967;48.702;9.326;2022-08-19T04:39:09;24.67;;;19.80;;
7843;SDS011;3967;48.702;9.326;2022-08-19T04:41:38;24.83;;;20.60;;
7843;SDS011;3967;48.702;9.326;2022-08-19T04:44:23;25.20;;;21.20;;
7843;SDS011;3967;48.702;9.326;2022-08-19T04:46:51;25.80;;;20.67;;
7843;SDS011;3967;48.702;9.326;2022-08-19T04:49:19;21.97;;;18.97;;
7843;SDS011;3967;48.702;9.326;2022-08-19T04:51:49;24.97;;;20.50;;
7843;SDS011;3967;48.702;9.326;2022-08-19T04:54:18;23.43;;;19.30;;
7843;SDS011;3967;48.702;9.326;2022-08-19T04:57:04;27.57;;;21.17;;
7843;SDS011;3967;48.702;9.326;2022-08-19T04:59:33;24.17;;;20.77;;
7843;SDS011;3967;48.702;9.326;2022-08-19T05:02:00;28.13;;;22.37;;
7843;SDS011;3967;48.702;9.326;2022-08-19T05:04:27;26.57;;;21.53;;
7843;SDS011;3967;48.702;9.326;2022-08-19T05:06:57;25.60;;;21.57;;
7843;SDS011;3967;48.702;9.326;2022-08-19T05:09:26;23.17;;;20.00;;
7843;SDS011;3967;48.702;9.326;2022-08-19T05:12:13;27.97;;;22.40;;
7843;SDS011;3967;48.702;9.326;2022-08-19T05:14:41;28.13;;;22.33;;
7843;SDS011;3967;48.702;9.326;2022-08-19T05:17:08;25.27;;;19.83;;
7843;SDS011;3967;48.702;9.326;2022-08-19T05:19:53;27.80;;;21.33;;
7843;SDS011;3967;48.702;9.326;2022-08-19T05:22:39;27.20;;;20.33;;
7843;SDS011;3967;48.702;9.326;2022-08-19T05:25:08;25.77;;;21.40;;
7843;SDS011;3967;48.702;9.326;2022-08-19T05:27:39;24.40;;;20.70;;
7843;SDS011;3967;48.702;9.326;2022-08-19T05:30:07;24.17;;;20.30;;
7843;SDS011;3967;48.702;9.326;2022-08-19T05:32:35;21.10;;;18.90;;
7843;SDS011;3967;48.702;9.326;2022-08-19T05:35:02;22.17;;;19.83;;
7843;SDS011;3967;48.702;9.326;2022-08-19T05:37:29;22.23;;;19.33;;
7843;SDS011;3967;48.702;9.326;2022-08-19T05:39:56;23.53;;;20.80;;
7843;SDS011;3967;48.702;9.326;2022-08-19T05:42:23;25.23;;;21.60;;
7843;SDS011;3967;48.702;9.326;2022-08-19T05:44:50;23.77;;;21.10;;
7843;SDS011;3967;48.702;9.326;2022-08-19T05:47:17;24.40;;;20.03;;
7843;SDS011;3967;48.702;9.326;2022-08-19T05:49:46;24.20;;;19.10;;
7843;SDS011;3967;48.702;9.326;2022-08-19T05:52:14;21.03;;;17.33;;
7843;SDS011;3967;48.702;9.326;2022-08-19T05:54:44;22.63;;;19.53;;
7843;SDS011;3967;48.702;9.326;2022-08-19T05:57:16;23.20;;;20.50;;
7843;SDS011;3967;48.702;9.326;2022-08-19T05:59:47;23.83;;;21.20;;
7843;SDS011;3967;48.702;9.326;2022-08-19T06:02:18;24.57;;;20.63;;
7843;SDS011;3967;48.702;9.326;2022-08-19T06:04:45;22.93;;;19.77;;
7843;SDS011;3967;48.702;9.326;2022-08-19T06:07:12;22.07;;;19.33;;
7843;SDS011;3967;48.702;9.326;2022-08-19T06:09:40;25.07;;;20.43;;
7843;SDS011;3967;48.702;9.326;2022-08-19T06:12:24;24.63;;;21.20;;
7843;SDS011;3967;48.702;9.326;2022-08-19T06:14:59;24.13;;;20.83;;
7843;SDS011;3967;48.702;9.326;2022-08-19T06:17:28;23.70;;;20.23;;
7843;SDS011;3967;48.702;9.326;2022-08-19T06:19:57;27.17;;;21.07;;
7843;SDS011;3967;48.702;9.326;2022-08-19T06:22:24;24.07;;;21.20;;
7843;SDS011;3967;48.702;9.326;2022-08-19T06:24:51;25.70;;;21.87;;
7843;SDS011;3967;48.702;9.326;2022-08-19T06:27:19;24.20;;;20.93;;
7843;SDS011;3967;48.702;9.326;2022-08-19T06:29:46;26.07;;;21.27;;
7843;SDS011;3967;48.702;9.326;2022-08-19T06:32:14;24.70;;;21.67;;
7843;SDS011;3967;48.702;9.326;2022-08-19T06:34:42;24.80;;;21.33;;
7843;SDS011;3967;48.702;9.326;2022-08-19T06:37:10;22.30;;;19.90;;
7843;SDS011;3967;48.702;9.326;2022-08-19T06:39:38;24.77;;;22.07;;
7843;SDS011;3967;48.702;9.326;2022-08-19T06:42:07;27.53;;;22.43;;
7843;SDS011;3967;48.702;9.326;2022-08-19T06:44:38;23.83;;;20.90;;
7843;SDS011;3967;48.702;9.326;2022-08-19T06:47:09;24.57;;;21.60;;
7843;SDS011;3967;48.702;9.326;2022-08-19T06:49:50;25.93;;;22.10;;
7843;SDS011;3967;48.702;9.326;2022-08-19T06:52:19;28.77;;;22.73;;
7843;SDS011;3967;48.702;9.326;2022-08-19T06:54:46;25.70;;;22.27;;
7843;SDS011;3967;48.702;9.326;2022-08-19T06:57:22;27.03;;;22.37;;
7843;SDS011;3967;48.702;9.326;2022-08-19T06:59:50;27.77;;;22.90;;
7843;SDS011;3967;48.702;9.326;2022-08-19T07:02:17;26.33;;;23.33;;
7843;SDS011;3967;48.702;9.326;2022-08-19T07:04:45;31.07;;;24.10;;
7843;SDS011;3967;48.702;9.326;2022-08-19T07:07:12;29.77;;;24.07;;
7843;SDS011;3967;48.702;9.326;2022-08-19T07:09:46;24.93;;;22.23;;
7843;SDS011;3967;48.702;9.326;2022-08-19T07:12:28;28.97;;;23.30;;
7843;SDS011;3967;48.702;9.326;2022-08-19T07:15:00;29.33;;;25.23;;
7843;SDS011;3967;48.702;9.326;2022-08-19T07:17:28;29.70;;;24.93;;
7843;SDS011;3967;48.702;9.326;2022-08-19T07:19:56;29.73;;;26.03;;
7843;SDS011;3967;48.702;9.326;2022-08-19T07:22:30;27.73;;;23.27;;
7843;SDS011;3967;48.702;9.326;2022-08-19T07:24:58;27.13;;;24.00;;
7843;SDS011;3967;48.702;9.326;2022-08-19T07:27:25;26.80;;;23.13;;
7843;SDS011;3967;48.702;9.326;2022-08-19T07:29:52;27.67;;;24.67;;
7843;SDS011;3967;48.702;9.326;2022-08-19T07:32:22;28.43;;;25.10;;
7843;SDS011;3967;48.702;9.326;2022-08-19T07:34:51;28.73;;;24.73;;
7843;SDS011;3967;48.702;9.326;2022-08-19T07:37:18;29.00;;;23.77;;
7843;SDS011;3967;48.702;9.326;2022-08-19T07:39:45;26.67;;;23.80;;
7843;SDS011;3967;48.702;9.326;2022-08-19T07:42:12;29.83;;;24.03;;
7843;SDS011;3967;48.702;9.326;2022-08-19T07:44:40;27.83;;;24.33;;
7843;SDS011;3967;48.702;9.326;2022-08-19T07:47:15;25.93;;;22.57;;
7843;SDS011;3967;48.702;9.326;2022-08-19T07:50:03;29.47;;;24.63;;
7843;SDS011;3967;48.702;9.326;2022-08-19T07:52:33;30.40;;;24.57;;
7843;SDS011;3967;48.702;9.326;2022-08-19T07:55:02;28.43;;;24.53;;
7843;SDS011;3967;48.702;9.326;2022-08-19T07:57:30;25.43;;;22.53;;
7843;SDS011;3967;48.702;9.326;2022-08-19T07:59:59;28.13;;;24.23;;
7843;SDS011;3967;48.702;9.326;2022-08-19T08:02:25;29.10;;;23.53;;
7843;SDS011;3967;48.702;9.326;2022-08-19T08:04:52;25.47;;;22.30;;
7843;SDS011;3967;48.702;9.326;2022-08-19T08:07:38;27.03;;;23.43;;
7843;SDS011;3967;48.702;9.326;2022-08-19T08:10:24;29.27;;;23.20;;
7843;SDS011;3967;48.702;9.326;2022-08-19T08:12:51;28.43;;;23.17;;
7843;SDS011;3967;48.702;9.326;2022-08-19T08:15:35;27.33;;;23.93;;
7843;SDS011;3967;48.702;9.326;2022-08-19T08:18:08;30.33;;;24.17;;
7843;SDS011;3967;48.702;9.326;2022-08-19T08:20:35;33.53;;;25.90;;
7843;SDS011;3967;48.702;9.326;2022-08-19T08:23:02;26.60;;;23.57;;
7843;SDS011;3967;48.702;9.326;2022-08-19T08:25:48;26.30;;;23.43;;
7843;SDS011;3967;48.702;9.326;2022-08-19T08:28:16;28.57;;;23.20;;
7843;SDS011;3967;48.702;9.326;2022-08-19T08:30:44;29.83;;;24.70;;
7843;SDS011;3967;48.702;9.326;2022-08-19T08:33:17;28.40;;;24.07;;
7843;SDS011;3967;48.702;9.326;2022-08-19T08:36:09;30.13;;;23.33;;
7843;SDS011;3967;48.702;9.326;2022-08-19T08:38:42;26.63;;;23.40;;
7843;SDS011;3967;48.702;9.326;2022-08-19T08:43:56;30.60;;;24.33;;
7843;SDS011;3967;48.702;9.326;2022-08-19T08:49:02;27.17;;;23.40;;
7843;SDS011;3967;48.702;9.326;2022-08-19T08:51:37;29.97;;;24.30;;
7843;SDS011;3967;48.702;9.326;2022-08-19T08:54:10;27.17;;;24.27;;
7843;SDS011;3967;48.702;9.326;2022-08-19T08:56:41;27.77;;;23.70;;
7843;SDS011;3967;48.702;9.326;2022-08-19T08:59:14;25.87;;;22.40;;
7843;SDS011;3967;48.702;9.326;2022-08-19T09:01:46;27.80;;;22.87;;
7843;SDS011;3967;48.702;9.326;2022-08-19T09:04:14;25.30;;;21.87;;
7843;SDS011;3967;48.702;9.326;2022-08-19T09:10:07;26.07;;;22.00;;
7843;SDS011;3967;48.702;9.326;2022-08-19T09:15:40;25.67;;;22.57;;
7843;SDS011;3967;48.702;9.326;2022-08-19T09:18:12;25.43;;;22.00;;
7843;SDS011;3967;48.702;9.326;2022-08-19T09:20:45;25.27;;;21.93;;
7843;SDS011;3967;48.702;9.326;2022-08-19T09:23:13;31.93;;;23.63;;
7843;SDS011;3967;48.702;9.326;2022-08-19T09:25:40;29.50;;;23.83;;
7843;SDS011;3967;48.702;9.326;2022-08-19T09:28:07;26.63;;;23.20;;
7843;SDS011;3967;48.702;9.326;2022-08-19T09:30:47;28.60;;;23.23;;
7843;SDS011;3967;48.702;9.326;2022-08-19T09:33:14;23.90;;;21.30;;
7843;SDS011;3967;48.702;9.326;2022-08-19T09:35:42;24.37;;;21.77;;
7843;SDS011;3967;48.702;9.326;2022-08-19T09:38:18;23.47;;;20.93;;
7843;SDS011;3967;48.702;9.326;2022-08-19T09:40:46;25.20;;;21.60;;
7843;SDS011;3967;48.702;9.326;2022-08-19T09:43:13;25.83;;;21.83;;
7843;SDS011;3967;48.702;9.326;2022-08-19T09:45:40;29.80;;;23.53;;
7843;SDS011;3967;48.702;9.326;2022-08-19T09:48:06;23.33;;;20.83;;
7843;SDS011;3967;48.702;9.326;2022-08-19T09:50:36;24.23;;;20.57;;
7843;SDS011;3967;48.702;9.326;2022-08-19T09:53:17;26.77;;;23.03;;
7843;SDS011;3967;48.702;9.326;2022-08-19T09:55:44;22.60;;;20.23;;
7843;SDS011;3967;48.702;9.326;2022-08-19T09:58:11;23.57;;;20.47;;
7843;SDS011;3967;48.702;9.326;2022-08-19T10:00:38;24.47;;;21.80;;
7843;SDS011;3967;48.702;9.326;2022-08-19T10:03:05;22.77;;;20.33;;
7843;SDS011;3967;48.702;9.326;2022-08-19T10:05:32;24.33;;;20.80;;
7843;SDS011;3967;48.702;9.326;2022-08-19T10:08:15;22.93;;;20.43;;
7843;SDS011;3967;48.702;9.326;2022-08-19T10:10:45;21.73;;;18.97;;
7843;SDS011;3967;48.702;9.326;2022-08-19T10:13:14;22.73;;;20.30;;
7843;SDS011;3967;48.702;9.326;2022-08-19T10:15:42;23.03;;;20.57;;
7843;SDS011;3967;48.702;9.326;2022-08-19T10:18:13;25.53;;;20.53;;
7843;SDS011;3967;48.702;9.326;2022-08-19T10:20:42;23.47;;;20.60;;
7843;SDS011;3967;48.702;9.326;2022-08-19T10:23:17;23.20;;;20.43;;
7843;SDS011;3967;48.702;9.326;2022-08-19T10:25:44;25.47;;;21.10;;
7843;SDS011;3967;48.702;9.326;2022-08-19T10:28:13;21.87;;;19.47;;
7843;SDS011;3967;48.702;9.326;2022-08-19T10:30:40;23.57;;;20.40;;
7843;SDS011;3967;48.702;9.326;2022-08-19T10:33:08;23.43;;;19.87;;
7843;SDS011;3967;48.702;9.326;2022-08-19T10:35:36;21.83;;;18.83;;
7843;SDS011;3967;48.702;9.326;2022-08-19T10:38:23;24.73;;;20.07;;
7843;SDS011;3967;48.702;9.326;2022-08-19T10:40:57;22.03;;;19.83;;
7843;SDS011;3967;48.702;9.326;2022-08-19T10:43:24;22.77;;;19.87;;
7843;SDS011;3967;48.702;9.326;2022-08-19T10:45:52;25.47;;;21.10;;
7843;SDS011;3967;48.702;9.326;2022-08-19T10:48:22;25.40;;;22.07;;
7843;SDS011;3967;48.702;9.326;2022-08-19T10:50:48;27.77;;;24.20;;
7843;SDS011;3967;48.702;9.326;2022-08-19T10:53:34;27.87;;;22.80;;
7843;SDS011;3967;48.702;9.326;2022-08-19T10:56:01;36.87;;;28.53;;
7843;SDS011;3967;48.702;9.326;2022-08-19T10:58:47;29.33;;;25.17;;
7843;SDS011;3967;48.702;9.326;2022-08-19T11:01:14;31.80;;;27.33;;
7843;SDS011;3967;48.702;9.326;2022-08-19T11:03:41;27.00;;;23.97;;
7843;SDS011;3967;48.702;9.326;2022-08-19T11:06:08;32.43;;;27.13;;
7843;SDS011;3967;48.702;9.326;2022-08-19T11:08:35;35.53;;;27.20;;
7843;SDS011;3967;48.702;9.326;2022-08-19T11:11:04;31.67;;;26.97;;
7843;SDS011;3967;48.702;9.326;2022-08-19T11:13:33;32.93;;;27.27;;
7843;SDS011;3967;48.702;9.326;2022-08-19T11:16:23;31.80;;;24.87;;
7843;SDS011;3967;48.702;9.326;2022-08-19T11:18:53;27.20;;;23.70;;
7843;SDS011;3967;48.702;9.326;2022-08-19T11:21:25;31.00;;;25.97;;
7843;SDS011;3967;48.702;9.326;2022-08-19T11:23:54;33.17;;;27.17;;
7843;SDS011;3967;48.702;9.326;2022-08-19T11:26:23;31.40;;;26.37;;
7843;SDS011;3967;48.702;9.326;2022-08-19T11:28:51;31.00;;;26.13;;
7843;SDS011;3967;48.702;9.326;2022-08-19T11:31:22;36.17;;;27.27;;
7843;SDS011;3967;48.702;9.326;2022-08-19T11:33:56;28.87;;;25.07;;
7843;SDS011;3967;48.702;9.326;2022-08-19T11:36:23;27.23;;;24.20;;
7843;SDS011;3967;48.702;9.326;2022-08-19T11:38:50;33.20;;;27.80;;
7843;SDS011;3967;48.702;9.326;2022-08-19T11:41:18;32.20;;;26.00;;
7843;SDS011;3967;48.702;9.326;2022-08-19T11:43:46;41.03;;;29.70;;
7843;SDS011;3967;48.702;9.326;2022-08-19T11:46:14;31.27;;;26.57;;
7843;SDS011;3967;48.702;9.326;2022-08-19T11:48:42;30.60;;;24.77;;
7843;SDS011;3967;48.702;9.326;2022-08-19T11:51:11;29.97;;;25.80;;
7843;SDS011;3967;48.702;9.326;2022-08-19T11:53:39;28.93;;;24.93;;
7843;SDS011;3967;48.702;9.326;2022-08-19T11:56:07;33.23;;;27.77;;
7843;SDS011;3967;48.702;9.326;2022-08-19T11:58:35;31.60;;;27.67;;
7843;SDS011;3967;48.702;9.326;2022-08-19T12:01:05;27.27;;;23.23;;
7843;SDS011;3967;48.702;9.326;2022-08-19T12:03:36;29.73;;;24.80;;
7843;SDS011;3967;48.702;9.326;2022-08-19T12:06:05;33.23;;;26.90;;
7843;SDS011;3967;48.702;9.326;2022-08-19T12:08:32;32.00;;;25.63;;
7843;SDS011;3967;48.702;9.326;2022-08-19T12:11:00;29.70;;;24.83;;
7843;SDS011;3967;48.702;9.326;2022-08-19T12:13:30;33.53;;;28.00;;
7843;SDS011;3967;48.702;9.326;2022-08-19T12:15:57;28.07;;;24.90;;
7843;SDS011;3967;48.702;9.326;2022-08-19T12:18:24;27.57;;;23.57;;
7843;SDS011;3967;48.702;9.326;2022-08-19T12:20:51;34.00;;;27.53;;
7843;SDS011;3967;48.702;9.326;2022-08-19T12:23:20;32.30;;;26.87;;
7843;SDS011;3967;48.702;9.326;2022-08-19T12:25:48;32.60;;;27.13;;
7843;SDS011;3967;48.702;9.326;2022-08-19T12:28:19;29.50;;;25.53;;
7843;SDS011;3967;48.702;9.326;2022-08-19T12:30:46;31.77;;;26.90;;
7843;SDS011;3967;48.702;9.326;2022-08-19T12:33:14;31.00;;;25.67;;
7843;SDS011;3967;48.702;9.326;2022-08-19T12:35:41;30.97;;;26.00;;
7843;SDS011;3967;48.702;9.326;2022-08-19T12:38:12;29.70;;;24.43;;
7843;SDS011;3967;48.702;9.326;2022-08-19T12:40:40;32.57;;;26.53;;
7843;SDS011;3967;48.702;9.326;2022-08-19T12:43:08;29.03;;;24.93;;
7843;SDS011;3967;48.702;9.326;2022-08-19T12:45:34;30.77;;;25.43;;
7843;SDS011;3967;48.702;9.326;2022-08-19T12:48:02;41.93;;;31.33;;
7843;SDS011;3967;48.702;9.326;2022-08-19T12:50:50;31.53;;;26.33;;
7843;SDS011;3967;48.702;9.326;2022-08-19T12:53:17;31.87;;;26.53;;
7843;SDS011;3967;48.702;9.326;2022-08-19T12:55:43;33.40;;;27.73;;
7843;SDS011;3967;48.702;9.326;2022-08-19T12:58:10;37.10;;;29.07;;
7843;SDS011;3967;48.702;9.326;2022-08-19T13:00:38;34.50;;;27.93;;
7843;SDS011;3967;48.702;9.326;2022-08-19T13:03:05;37.67;;;29.83;;
7843;SDS011;3967;48.702;9.326;2022-08-19T13:05:32;34.50;;;28.77;;
7843;SDS011;3967;48.702;9.326;2022-08-19T13:08:00;38.97;;;30.70;;
7843;SDS011;3967;48.702;9.326;2022-08-19T13:10:31;36.73;;;29.47;;
7843;SDS011;3967;48.702;9.326;2022-08-19T13:13:02;40.37;;;30.73;;
7843;SDS011;3967;48.702;9.326;2022-08-19T13:15:33;37.63;;;30.40;;
7843;SDS011;3967;48.702;9.326;2022-08-19T13:18:01;44.60;;;32.13;;
7843;SDS011;3967;48.702;9.326;2022-08-19T13:20:28;37.27;;;30.17;;
7843;SDS011;3967;48.702;9.326;2022-08-19T13:22:55;45.73;;;33.90;;
7843;SDS011;3967;48.702;9.326;2022-08-19T13:25:23;39.63;;;30.93;;
7843;SDS011;3967;48.702;9.326;2022-08-19T13:27:51;40.20;;;30.53;;
7843;SDS011;3967;48.702;9.326;2022-08-19T13:30:19;33.73;;;27.90;;
7843;SDS011;3967;48.702;9.326;2022-08-19T13:33:04;41.27;;;30.97;;
7843;SDS011;3967;48.702;9.326;2022-08-19T13:35:47;36.40;;;29.10;;
7843;SDS011;3967;48.702;9.326;2022-08-19T13:38:17;38.03;;;28.80;;
7843;SDS011;3967;48.702;9.326;2022-08-19T13:40:47;36.87;;;29.83;;
7843;SDS011;3967;48.702;9.326;2022-08-19T13:43:16;39.60;;;30.63;;
7843;SDS011;3967;48.702;9.326;2022-08-19T13:45:52;41.30;;;31.03;;
7843;SDS011;3967;48.702;9.326;2022-08-19T13:48:21;40.23;;;30.37;;
7843;SDS011;3967;48.702;9.326;2022-08-19T13:50:49;39.83;;;30.33;;
7843;SDS011;3967;48.702;9.326;2022-08-19T13:53:16;36.77;;;29.07;;
7843;SDS011;3967;48.702;9.326;2022-08-19T13:55:43;36.67;;;29.40;;
7843;SDS011;3967;48.702;9.326;2022-08-19T13:58:10;33.93;;;27.60;;
7843;SDS011;3967;48.702;9.326;2022-08-19T14:00:44;39.10;;;31.03;;
7843;SDS011;3967;48.702;9.326;2022-08-19T14:03:12;37.87;;;31.27;;
7843;SDS011;3967;48.702;9.326;2022-08-19T14:05:39;37.50;;;31.00;;
7843;SDS011;3967;48.702;9.326;2022-08-19T14:08:06;38.43;;;30.77;;
7843;SDS011;3967;48.702;9.326;2022-08-19T14:10:33;39.37;;;29.67;;
7843;SDS011;3967;48.702;9.326;2022-08-19T14:13:01;36.13;;;29.10;;
7843;SDS011;3967;48.702;9.326;2022-08-19T14:15:29;30.13;;;26.90;;
7843;SDS011;3967;48.702;9.326;2022-08-19T14:17:56;33.10;;;26.83;;
7843;SDS011;3967;48.702;9.326;2022-08-19T14:20:23;26.97;;;24.17;;
7843;SDS011;3967;48.702;9.326;2022-08-19T14:22:51;33.20;;;28.23;;
7843;SDS011;3967;48.702;9.326;2022-08-19T14:25:20;32.57;;;28.37;;
7843;SDS011;3967;48.702;9.326;2022-08-19T14:27:49;29.40;;;25.37;;
7843;SDS011;3967;48.702;9.326;2022-08-19T14:30:21;29.83;;;25.53;;
7843;SDS011;3967;48.702;9.326;2022-08-19T14:32:51;31.10;;;25.87;;
7843;SDS011;3967;48.702;9.326;2022-08-19T14:35:18;28.37;;;24.87;;
7843;SDS011;3967;48.702;9.326;2022-08-19T14:37:45;28.53;;;24.43;;
7843;SDS011;3967;48.702;9.326;2022-08-19T14:40:14;26.53;;;23.63;;
7843;SDS011;3967;48.702;9.326;2022-08-19T14:42:43;31.50;;;25.70;;
7843;SDS011;3967;48.702;9.326;2022-08-19T14:45:10;24.10;;;21.53;;
7843;SDS011;3967;48.702;9.326;2022-08-19T14:47:37;27.13;;;23.70;;
7843;SDS011;3967;48.702;9.326;2022-08-19T14:50:07;25.07;;;21.97;;
7843;SDS011;3967;48.702;9.326;2022-08-19T14:52:40;25.00;;;22.30;;
7843;SDS011;3967;48.702;9.326;2022-08-19T14:55:07;26.27;;;23.47;;
7843;SDS011;3967;48.702;9.326;2022-08-19T14:57:34;25.53;;;22.87;;
7843;SDS011;3967;48.702;9.326;2022-08-19T15:00:01;25.10;;;22.50;;
7843;SDS011;3967;48.702;9.326;2022-08-19T15:02:29;23.30;;;19.97;;
7843;SDS011;3967;48.702;9.326;2022-08-19T15:05:00;24.53;;;22.00;;
7843;SDS011;3967;48.702;9.326;2022-08-19T15:07:28;27.60;;;24.57;;
7843;SDS011;3967;48.702;9.326;2022-08-19T15:09:56;24.83;;;22.23;;
7843;SDS011;3967;48.702;9.326;2022-08-19T15:12:23;22.20;;;19.90;;
7843;SDS011;3967;48.702;9.326;2022-08-19T15:14:50;24.67;;;22.20;;
7843;SDS011;3967;48.702;9.326;2022-08-19T15:17:22;26.23;;;23.37;;
7843;SDS011;3967;48.702;9.326;2022-08-19T15:20:09;26.70;;;23.77;;